sensor_id;sensor_type;location;lat;lon;timestamp;P1;durP1;ratioP1;P2;durP2;ratioP2
3971;SDS011;2000;47.572;14.202;2023-07-20T00:00:03;6.30;;;3.80;;
3971;SDS011;2000;47.572;14.202;2023-07-20T00:02:52;4.87;;;4.13;;
3971;SDS011;2000;47.572;14.202;2023-07-20T00:05:19;8.10;;;4.00;;
3971;SDS011;2000;47.572;14.202;2023-07-20T00:07:47;8.30;;;3.50;;
3971;SDS011;2000;47.572;14.202;2023-07-20T00:10:18;11.20;;;4.50;;
3971;SDS011;2000;47.572;14.202;2023-07-20T00:12:45;10.53;;;4.43;;
3971;SDS011;2000;47.572;14.202;2023-07-20T00:15:14;12.87;;;6.10;;
3971;SDS011;2000;47.572;14.202;2023-07-20T00:17:41;8.63;;;4.50;;
3971;SDS011;2000;47.572;14.202;2023-07-20T00:20:08;10.60;;;4.40;;
3971;SDS011;2000;47.572;14.202;2023-07-20T00:22:35;5.73;;;3.70;;
3971;SDS011;2000;47.572;14.202;2023-07-20T00:25:02;11.33;;;4.13;;
3971;SDS011;2000;47.572;14.202;2023-07-20T00:27:29;6.20;;;4.03;;
3971;SDS011;2000;47.572;14.202;2023-07-20T00:29:56;8.80;;;4.50;;
3971;SDS011;2000;47.572;14.202;2023-07-20T00:32:23;5.87;;;3.83;;
3971;SDS011;2000;47.572;14.202;2023-07-20T00:34:50;15.10;;;5.00;;
3971;SDS011;2000;47.572;14.202;2023-07-20T00:37:16;6.80;;;4.50;;
3971;SDS011;2000;47.572;14.202;2023-07-20T00:39:43;9.40;;;4.77;;
3971;SDS011;2000;47.572;14.202;2023-07-20T00:42:10;10.23;;;4.00;;
3971;SDS011;2000;47.572;14.202;2023-07-20T00:44:37;4.83;;;3.50;;
3971;SDS011;2000;47.572;14.202;2023-07-20T00:47:04;9.17;;;4.70;;
3971;SDS011;2000;47.572;14.202;2023-07-20T00:49:32;11.03;;;4.90;;
3971;SDS011;2000;47.572;14.202;2023-07-20T00:51:59;7.13;;;5.00;;
3971;SDS011;2000;47.572;14.202;2023-07-20T00:54:27;6.87;;;4.03;;
3971;SDS011;2000;47.572;14.202;2023-07-20T00:56:54;4.97;;;3.90;;
3971;SDS011;2000;47.572;14.202;2023-07-20T00:59:21;15.17;;;4.17;;
3971;SDS011;2000;47.572;14.202;2023-07-20T01:01:48;4.00;;;3.50;;
3971;SDS011;2000;47.572;14.202;2023-07-20T01:04:15;7.90;;;4.00;;
3971;SDS011;2000;47.572;14.202;2023-07-20T01:06:45;10.53;;;3.90;;
3971;SDS011;2000;47.572;14.202;2023-07-20T01:09:22;15.87;;;5.10;;
3971;SDS011;2000;47.572;14.202;2023-07-20T01:12:08;7.20;;;4.67;;
3971;SDS011;2000;47.572;14.202;2023-07-20T01:14:37;6.13;;;4.60;;
3971;SDS011;2000;47.572;14.202;2023-07-20T01:17:04;5.87;;;4.47;;
3971;SDS011;2000;47.572;14.202;2023-07-20T01:19:31;6.30;;;4.53;;
3971;SDS011;2000;47.572;14.202;2023-07-20T01:24:51;4.10;;;3.50;;
3971;SDS011;2000;47.572;14.202;2023-07-20T01:32:53;14.63;;;4.80;;
3971;SDS011;2000;47.572;14.202;2023-07-20T01:35:21;10.40;;;4.30;;
3971;SDS011;2000;47.572;14.202;2023-07-20T01:37:50;7.43;;;4.80;;
3971;SDS011;2000;47.572;14.202;2023-07-20T01:40:17;5.13;;;4.00;;
3971;SDS011;2000;47.572;14.202;2023-07-20T01:42:47;5.77;;;4.03;;
3971;SDS011;2000;47.572;14.202;2023-07-20T01:45:14;5.97;;;4.37;;
3971;SDS011;2000;47.572;14.202;2023-07-20T01:47:41;6.47;;;4.80;;
3971;SDS011;2000;47.572;14.202;2023-07-20T01:50:09;6.40;;;4.30;;
3971;SDS011;2000;47.572;14.202;2023-07-20T01:52:36;5.53;;;3.57;;
3971;SDS011;2000;47.572;14.202;2023-07-20T01:55:03;5.37;;;3.70;;
3971;SDS011;2000;47.572;14.202;2023-07-20T01:57:31;4.40;;;3.10;;
3971;SDS011;2000;47.572;14.202;2023-07-20T01:59:58;11.37;;;4.30;;
3971;SDS011;2000;47.572;14.202;2023-07-20T02:02:26;6.07;;;3.63;;
3971;SDS011;2000;47.572;14.202;2023-07-20T02:04:53;6.20;;;4.27;;
3971;SDS011;2000;47.572;14.202;2023-07-20T02:07:20;8.30;;;3.70;;
3971;SDS011;2000;47.572;14.202;2023-07-20T02:09:47;6.00;;;3.90;;
3971;SDS011;2000;47.572;14.202;2023-07-20T02:12:14;7.20;;;3.90;;
3971;SDS011;2000;47.572;14.202;2023-07-20T02:14:41;3.80;;;3.30;;
3971;SDS011;2000;47.572;14.202;2023-07-20T02:17:08;6.70;;;3.80;;
3971;SDS011;2000;47.572;14.202;2023-07-20T02:19:37;6.30;;;4.43;;
3971;SDS011;2000;47.572;14.202;2023-07-20T02:22:04;7.80;;;4.17;;
3971;SDS011;2000;47.572;14.202;2023-07-20T02:24:33;6.20;;;3.70;;
3971;SDS011;2000;47.572;14.202;2023-07-20T02:27:00;12.43;;;3.77;;
3971;SDS011;2000;47.572;14.202;2023-07-20T02:29:27;6.00;;;4.47;;
3971;SDS011;2000;47.572;14.202;2023-07-20T02:31:54;6.50;;;3.40;;
3971;SDS011;2000;47.572;14.202;2023-07-20T02:34:21;3.70;;;3.17;;
3971;SDS011;2000;47.572;14.202;2023-07-20T02:36:48;8.63;;;3.67;;
3971;SDS011;2000;47.572;14.202;2023-07-20T02:39:14;7.67;;;3.60;;
3971;SDS011;2000;47.572;14.202;2023-07-20T02:41:41;4.50;;;3.57;;
3971;SDS011;2000;47.572;14.202;2023-07-20T02:44:08;5.20;;;3.80;;
3971;SDS011;2000;47.572;14.202;2023-07-20T02:46:35;7.10;;;4.20;;
3971;SDS011;2000;47.572;14.202;2023-07-20T02:49:02;4.30;;;3.13;;
3971;SDS011;2000;47.572;14.202;2023-07-20T02:51:28;7.67;;;4.10;;
3971;SDS011;2000;47.572;14.202;2023-07-20T02:53:55;6.50;;;3.67;;
3971;SDS011;2000;47.572;14.202;2023-07-20T02:56:22;7.07;;;4.30;;
3971;SDS011;2000;47.572;14.202;2023-07-20T02:58:49;7.23;;;3.53;;
3971;SDS011;2000;47.572;14.202;2023-07-20T03:01:16;6.60;;;3.60;;
3971;SDS011;2000;47.572;14.202;2023-07-20T03:03:43;4.63;;;3.47;;
3971;SDS011;2000;47.572;14.202;2023-07-20T03:06:13;5.83;;;3.93;;
3971;SDS011;2000;47.572;14.202;2023-07-20T03:08:43;4.50;;;3.73;;
3971;SDS011;2000;47.572;14.202;2023-07-20T03:11:14;10.13;;;3.93;;
3971;SDS011;2000;47.572;14.202;2023-07-20T03:13:42;5.43;;;4.20;;
3971;SDS011;2000;47.572;14.202;2023-07-20T03:16:09;8.77;;;3.60;;
3971;SDS011;2000;47.572;14.202;2023-07-20T03:18:38;4.33;;;3.63;;
3971;SDS011;2000;47.572;14.202;2023-07-20T03:21:05;5.80;;;3.17;;
3971;SDS011;2000;47.572;14.202;2023-07-20T03:23:33;5.77;;;3.37;;
3971;SDS011;2000;47.572;14.202;2023-07-20T03:26:01;4.10;;;3.33;;
3971;SDS011;2000;47.572;14.202;2023-07-20T03:28:27;5.40;;;3.97;;
3971;SDS011;2000;47.572;14.202;2023-07-20T03:30:55;5.53;;;4.00;;
3971;SDS011;2000;47.572;14.202;2023-07-20T03:33:24;7.63;;;3.90;;
3971;SDS011;2000;47.572;14.202;2023-07-20T03:35:51;5.97;;;3.70;;
3971;SDS011;2000;47.572;14.202;2023-07-20T03:38:19;4.00;;;3.53;;
3971;SDS011;2000;47.572;14.202;2023-07-20T03:40:56;5.43;;;3.53;;
3971;SDS011;2000;47.572;14.202;2023-07-20T03:43:24;15.40;;;4.13;;
3971;SDS011;2000;47.572;14.202;2023-07-20T03:45:52;6.97;;;4.30;;
3971;SDS011;2000;47.572;14.202;2023-07-20T03:48:20;17.43;;;4.10;;
3971;SDS011;2000;47.572;14.202;2023-07-20T03:50:49;12.10;;;4.77;;
3971;SDS011;2000;47.572;14.202;2023-07-20T03:53:17;8.83;;;3.63;;
3971;SDS011;2000;47.572;14.202;2023-07-20T03:55:47;6.70;;;4.23;;
3971;SDS011;2000;47.572;14.202;2023-07-20T03:58:15;5.10;;;3.80;;
3971;SDS011;2000;47.572;14.202;2023-07-20T04:00:45;5.87;;;4.20;;
3971;SDS011;2000;47.572;14.202;2023-07-20T04:03:13;5.53;;;3.33;;
3971;SDS011;2000;47.572;14.202;2023-07-20T04:05:41;8.10;;;3.80;;
3971;SDS011;2000;47.572;14.202;2023-07-20T04:08:08;6.57;;;3.93;;
3971;SDS011;2000;47.572;14.202;2023-07-20T04:10:37;5.43;;;3.20;;
3971;SDS011;2000;47.572;14.202;2023-07-20T04:13:05;4.40;;;3.60;;
3971;SDS011;2000;47.572;14.202;2023-07-20T04:15:32;4.20;;;3.30;;
3971;SDS011;2000;47.572;14.202;2023-07-20T04:17:59;6.03;;;3.90;;
3971;SDS011;2000;47.572;14.202;2023-07-20T04:20:27;9.50;;;3.60;;
3971;SDS011;2000;47.572;14.202;2023-07-20T04:22:54;12.40;;;5.60;;
3971;SDS011;2000;47.572;14.202;2023-07-20T04:25:21;6.97;;;5.13;;
3971;SDS011;2000;47.572;14.202;2023-07-20T04:27:47;12.10;;;6.27;;
3971;SDS011;2000;47.572;14.202;2023-07-20T04:30:16;10.80;;;4.63;;
3971;SDS011;2000;47.572;14.202;2023-07-20T04:32:46;14.03;;;5.13;;
3971;SDS011;2000;47.572;14.202;2023-07-20T04:35:56;11.97;;;4.47;;
3971;SDS011;2000;47.572;14.202;2023-07-20T04:38:19;6.80;;;5.13;;
3971;SDS011;2000;47.572;14.202;2023-07-20T04:40:47;12.57;;;5.03;;
3971;SDS011;2000;47.572;14.202;2023-07-20T04:43:15;25.40;;;13.87;;
3971;SDS011;2000;47.572;14.202;2023-07-20T04:45:43;12.73;;;7.83;;
3971;SDS011;2000;47.572;14.202;2023-07-20T04:48:10;9.37;;;5.40;;
3971;SDS011;2000;47.572;14.202;2023-07-20T04:50:39;5.63;;;4.33;;
3971;SDS011;2000;47.572;14.202;2023-07-20T04:53:08;7.63;;;3.83;;
3971;SDS011;2000;47.572;14.202;2023-07-20T04:55:37;4.87;;;4.00;;
3971;SDS011;2000;47.572;14.202;2023-07-20T04:58:04;6.10;;;3.50;;
3971;SDS011;2000;47.572;14.202;2023-07-20T05:00:32;7.50;;;4.10;;
3971;SDS011;2000;47.572;14.202;2023-07-20T05:02:59;19.77;;;4.47;;
3971;SDS011;2000;47.572;14.202;2023-07-20T05:05:26;9.37;;;4.97;;
3971;SDS011;2000;47.572;14.202;2023-07-20T05:07:53;6.03;;;3.97;;
3971;SDS011;2000;47.572;14.202;2023-07-20T05:10:21;10.47;;;4.50;;
3971;SDS011;2000;47.572;14.202;2023-07-20T05:12:47;15.77;;;11.20;;
3971;SDS011;2000;47.572;14.202;2023-07-20T05:15:14;8.97;;;7.07;;
3971;SDS011;2000;47.572;14.202;2023-07-20T05:17:41;13.20;;;4.60;;
3971;SDS011;2000;47.572;14.202;2023-07-20T05:20:08;11.33;;;6.10;;
3971;SDS011;2000;47.572;14.202;2023-07-20T05:22:39;7.10;;;4.70;;
3971;SDS011;2000;47.572;14.202;2023-07-20T05:25:07;7.80;;;4.70;;
3971;SDS011;2000;47.572;14.202;2023-07-20T05:27:37;5.70;;;4.70;;
3971;SDS011;2000;47.572;14.202;2023-07-20T05:30:05;9.00;;;4.90;;
3971;SDS011;2000;47.572;14.202;2023-07-20T05:32:33;8.40;;;4.90;;
3971;SDS011;2000;47.572;14.202;2023-07-20T05:35:00;13.83;;;5.07;;
3971;SDS011;2000;47.572;14.202;2023-07-20T05:37:27;9.60;;;5.00;;
3971;SDS011;2000;47.572;14.202;2023-07-20T05:39:54;19.77;;;5.33;;
3971;SDS011;2000;47.572;14.202;2023-07-20T05:42:21;8.03;;;4.90;;
3971;SDS011;2000;47.572;14.202;2023-07-20T05:44:48;8.03;;;4.80;;
3971;SDS011;2000;47.572;14.202;2023-07-20T05:47:16;14.10;;;5.00;;
3971;SDS011;2000;47.572;14.202;2023-07-20T05:49:43;11.83;;;5.77;;
3971;SDS011;2000;47.572;14.202;2023-07-20T05:52:10;8.50;;;4.80;;
3971;SDS011;2000;47.572;14.202;2023-07-20T05:54:36;6.90;;;4.73;;
3971;SDS011;2000;47.572;14.202;2023-07-20T05:57:04;9.30;;;4.87;;
3971;SDS011;2000;47.572;14.202;2023-07-20T05:59:31;9.17;;;5.57;;
3971;SDS011;2000;47.572;14.202;2023-07-20T06:01:58;14.73;;;5.03;;
3971;SDS011;2000;47.572;14.202;2023-07-20T06:04:25;9.80;;;6.10;;
3971;SDS011;2000;47.572;14.202;2023-07-20T06:06:52;15.90;;;5.20;;
3971;SDS011;2000;47.572;14.202;2023-07-20T06:09:18;7.77;;;4.30;;
3971;SDS011;2000;47.572;14.202;2023-07-20T06:11:45;6.93;;;5.67;;
3971;SDS011;2000;47.572;14.202;2023-07-20T06:14:12;7.10;;;5.70;;
3971;SDS011;2000;47.572;14.202;2023-07-20T06:16:42;7.47;;;5.40;;
3971;SDS011;2000;47.572;14.202;2023-07-20T06:19:09;8.93;;;4.47;;
3971;SDS011;2000;47.572;14.202;2023-07-20T06:21:38;6.17;;;5.20;;
3971;SDS011;2000;47.572;14.202;2023-07-20T06:24:05;11.40;;;5.40;;
3971;SDS011;2000;47.572;14.202;2023-07-20T06:26:32;11.63;;;5.40;;
3971;SDS011;2000;47.572;14.202;2023-07-20T06:29:05;7.70;;;5.20;;
3971;SDS011;2000;47.572;14.202;2023-07-20T06:31:38;17.97;;;5.73;;
3971;SDS011;2000;47.572;14.202;2023-07-20T06:34:05;12.83;;;5.60;;
3971;SDS011;2000;47.572;14.202;2023-07-20T06:36:32;5.50;;;4.30;;
3971;SDS011;2000;47.572;14.202;2023-07-20T06:38:59;9.77;;;5.83;;
3971;SDS011;2000;47.572;14.202;2023-07-20T06:41:28;6.27;;;4.63;;
3971;SDS011;2000;47.572;14.202;2023-07-20T06:43:58;7.00;;;4.67;;
3971;SDS011;2000;47.572;14.202;2023-07-20T06:46:25;10.73;;;4.60;;
3971;SDS011;2000;47.572;14.202;2023-07-20T06:48:53;9.60;;;5.53;;
3971;SDS011;2000;47.572;14.202;2023-07-20T06:51:24;4.73;;;4.23;;
3971;SDS011;2000;47.572;14.202;2023-07-20T06:53:51;4.97;;;4.47;;
3971;SDS011;2000;47.572;14.202;2023-07-20T06:56:18;10.43;;;5.03;;
3971;SDS011;2000;47.572;14.202;2023-07-20T06:58:49;10.60;;;5.83;;
3971;SDS011;2000;47.572;14.202;2023-07-20T07:01:15;15.33;;;5.30;;
3971;SDS011;2000;47.572;14.202;2023-07-20T07:03:43;13.10;;;5.30;;
3971;SDS011;2000;47.572;14.202;2023-07-20T07:06:10;12.60;;;5.23;;
3971;SDS011;2000;47.572;14.202;2023-07-20T07:08:37;15.70;;;5.60;;
3971;SDS011;2000;47.572;14.202;2023-07-20T07:11:04;10.07;;;5.10;;
3971;SDS011;2000;47.572;14.202;2023-07-20T07:13:31;11.70;;;4.13;;
3971;SDS011;2000;47.572;14.202;2023-07-20T07:15:58;9.77;;;6.20;;
3971;SDS011;2000;47.572;14.202;2023-07-20T07:18:25;14.10;;;6.03;;
3971;SDS011;2000;47.572;14.202;2023-07-20T07:20:53;12.60;;;6.20;;
3971;SDS011;2000;47.572;14.202;2023-07-20T07:23:20;9.90;;;5.33;;
3971;SDS011;2000;47.572;14.202;2023-07-20T07:25:47;10.60;;;6.53;;
3971;SDS011;2000;47.572;14.202;2023-07-20T07:28:14;11.63;;;5.97;;
3971;SDS011;2000;47.572;14.202;2023-07-20T07:30:41;8.50;;;5.23;;
3971;SDS011;2000;47.572;14.202;2023-07-20T07:33:08;12.03;;;5.40;;
3971;SDS011;2000;47.572;14.202;2023-07-20T07:35:36;8.23;;;5.37;;
3971;SDS011;2000;47.572;14.202;2023-07-20T07:38:03;9.83;;;5.00;;
3971;SDS011;2000;47.572;14.202;2023-07-20T07:40:52;8.03;;;4.80;;
3971;SDS011;2000;47.572;14.202;2023-07-20T07:43:19;24.43;;;6.07;;
3971;SDS011;2000;47.572;14.202;2023-07-20T07:45:46;8.87;;;4.83;;
3971;SDS011;2000;47.572;14.202;2023-07-20T07:48:13;8.60;;;5.77;;
3971;SDS011;2000;47.572;14.202;2023-07-20T07:50:40;16.23;;;5.93;;
3971;SDS011;2000;47.572;14.202;2023-07-20T07:53:08;7.10;;;4.80;;
3971;SDS011;2000;47.572;14.202;2023-07-20T07:55:38;8.43;;;5.70;;
3971;SDS011;2000;47.572;14.202;2023-07-20T07:58:05;8.03;;;5.70;;
3971;SDS011;2000;47.572;14.202;2023-07-20T08:00:32;11.70;;;5.70;;
3971;SDS011;2000;47.572;14.202;2023-07-20T08:02:58;10.43;;;5.20;;
3971;SDS011;2000;47.572;14.202;2023-07-20T08:05:26;12.90;;;4.57;;
3971;SDS011;2000;47.572;14.202;2023-07-20T08:07:53;8.13;;;5.33;;
3971;SDS011;2000;47.572;14.202;2023-07-20T08:10:20;7.00;;;6.30;;
3971;SDS011;2000;47.572;14.202;2023-07-20T08:12:48;8.10;;;5.00;;
3971;SDS011;2000;47.572;14.202;2023-07-20T08:15:15;13.93;;;5.80;;
3971;SDS011;2000;47.572;14.202;2023-07-20T08:17:42;12.80;;;6.00;;
3971;SDS011;2000;47.572;14.202;2023-07-20T08:20:12;13.17;;;5.87;;
3971;SDS011;2000;47.572;14.202;2023-07-20T08:22:39;10.93;;;5.60;;
3971;SDS011;2000;47.572;14.202;2023-07-20T08:25:06;5.77;;;4.93;;
3971;SDS011;2000;47.572;14.202;2023-07-20T08:27:34;10.23;;;5.20;;
3971;SDS011;2000;47.572;14.202;2023-07-20T08:30:02;9.77;;;5.20;;
3971;SDS011;2000;47.572;14.202;2023-07-20T08:32:30;8.13;;;4.70;;
3971;SDS011;2000;47.572;14.202;2023-07-20T08:34:57;8.77;;;5.10;;
3971;SDS011;2000;47.572;14.202;2023-07-20T08:37:24;8.93;;;5.23;;
3971;SDS011;2000;47.572;14.202;2023-07-20T08:39:51;10.83;;;7.17;;
3971;SDS011;2000;47.572;14.202;2023-07-20T08:42:18;15.20;;;6.47;;
3971;SDS011;2000;47.572;14.202;2023-07-20T08:44:45;11.37;;;5.70;;
3971;SDS011;2000;47.572;14.202;2023-07-20T08:47:13;9.27;;;5.43;;
3971;SDS011;2000;47.572;14.202;2023-07-20T08:49:42;8.67;;;4.80;;
3971;SDS011;2000;47.572;14.202;2023-07-20T08:52:09;17.53;;;4.23;;
3971;SDS011;2000;47.572;14.202;2023-07-20T08:54:37;5.87;;;4.43;;
3971;SDS011;2000;47.572;14.202;2023-07-20T08:57:04;6.17;;;4.70;;
3971;SDS011;2000;47.572;14.202;2023-07-20T08:59:32;16.90;;;5.60;;
3971;SDS011;2000;47.572;14.202;2023-07-20T09:01:59;6.43;;;4.90;;
3971;SDS011;2000;47.572;14.202;2023-07-20T09:04:26;9.10;;;4.37;;
3971;SDS011;2000;47.572;14.202;2023-07-20T09:06:53;6.97;;;4.20;;
3971;SDS011;2000;47.572;14.202;2023-07-20T09:09:20;5.90;;;3.87;;
3971;SDS011;2000;47.572;14.202;2023-07-20T09:11:48;8.63;;;3.80;;
3971;SDS011;2000;47.572;14.202;2023-07-20T09:14:16;5.30;;;4.67;;
3971;SDS011;2000;47.572;14.202;2023-07-20T09:16:49;9.40;;;5.60;;
3971;SDS011;2000;47.572;14.202;2023-07-20T09:19:21;4.57;;;4.10;;
3971;SDS011;2000;47.572;14.202;2023-07-20T09:21:48;8.70;;;3.83;;
3971;SDS011;2000;47.572;14.202;2023-07-20T09:24:20;7.33;;;3.70;;
3971;SDS011;2000;47.572;14.202;2023-07-20T09:26:48;7.30;;;4.10;;
3971;SDS011;2000;47.572;14.202;2023-07-20T09:29:20;5.67;;;3.93;;
3971;SDS011;2000;47.572;14.202;2023-07-20T09:31:59;5.83;;;4.00;;
3971;SDS011;2000;47.572;14.202;2023-07-20T09:34:31;7.77;;;4.40;;
3971;SDS011;2000;47.572;14.202;2023-07-20T09:37:01;9.83;;;3.80;;
3971;SDS011;2000;47.572;14.202;2023-07-20T09:39:29;5.77;;;4.20;;
3971;SDS011;2000;47.572;14.202;2023-07-20T09:41:59;4.53;;;2.90;;
3971;SDS011;2000;47.572;14.202;2023-07-20T09:44:30;3.10;;;2.70;;
3971;SDS011;2000;47.572;14.202;2023-07-20T09:47:02;4.47;;;3.13;;
3971;SDS011;2000;47.572;14.202;2023-07-20T09:49:30;3.87;;;3.13;;
3971;SDS011;2000;47.572;14.202;2023-07-20T09:52:17;4.90;;;3.23;;
3971;SDS011;2000;47.572;14.202;2023-07-20T09:54:48;4.07;;;2.63;;
3971;SDS011;2000;47.572;14.202;2023-07-20T09:57:15;4.23;;;3.33;;
3971;SDS011;2000;47.572;14.202;2023-07-20T09:59:42;5.13;;;3.30;;
3971;SDS011;2000;47.572;14.202;2023-07-20T10:02:25;8.40;;;3.13;;
3971;SDS011;2000;47.572;14.202;2023-07-20T10:05:01;5.70;;;3.87;;
3971;SDS011;2000;47.572;14.202;2023-07-20T10:07:30;6.40;;;3.20;;
3971;SDS011;2000;47.572;14.202;2023-07-20T10:09:59;10.23;;;3.90;;
3971;SDS011;2000;47.572;14.202;2023-07-20T10:12:26;4.83;;;3.70;;
3971;SDS011;2000;47.572;14.202;2023-07-20T10:14:57;5.80;;;2.23;;
3971;SDS011;2000;47.572;14.202;2023-07-20T10:17:28;6.57;;;2.90;;
3971;SDS011;2000;47.572;14.202;2023-07-20T10:19:56;3.10;;;2.63;;
3971;SDS011;2000;47.572;14.202;2023-07-20T10:22:25;3.77;;;2.93;;
3971;SDS011;2000;47.572;14.202;2023-07-20T10:24:53;7.97;;;3.60;;
3971;SDS011;2000;47.572;14.202;2023-07-20T10:27:20;2.60;;;2.40;;
3971;SDS011;2000;47.572;14.202;2023-07-20T10:29:47;6.53;;;2.67;;
3971;SDS011;2000;47.572;14.202;2023-07-20T10:32:16;3.80;;;2.47;;
3971;SDS011;2000;47.572;14.202;2023-07-20T10:34:49;4.30;;;3.20;;
3971;SDS011;2000;47.572;14.202;2023-07-20T10:40:26;3.50;;;2.90;;
3971;SDS011;2000;47.572;14.202;2023-07-20T10:42:58;11.60;;;3.20;;
3971;SDS011;2000;47.572;14.202;2023-07-20T10:48:20;3.83;;;2.90;;
3971;SDS011;2000;47.572;14.202;2023-07-20T10:53:41;5.03;;;2.47;;
3971;SDS011;2000;47.572;14.202;2023-07-20T10:56:12;2.93;;;2.70;;
3971;SDS011;2000;47.572;14.202;2023-07-20T10:58:40;5.43;;;2.93;;
3971;SDS011;2000;47.572;14.202;2023-07-20T11:01:13;5.13;;;3.03;;
3971;SDS011;2000;47.572;14.202;2023-07-20T11:03:49;6.83;;;3.40;;
3971;SDS011;2000;47.572;14.202;2023-07-20T11:08:56;4.23;;;3.03;;
3971;SDS011;2000;47.572;14.202;2023-07-20T11:11:35;4.17;;;3.37;;
3971;SDS011;2000;47.572;14.202;2023-07-20T11:14:06;4.70;;;2.50;;
3971;SDS011;2000;47.572;14.202;2023-07-20T11:16:41;3.27;;;2.60;;
3971;SDS011;2000;47.572;14.202;2023-07-20T11:19:22;9.03;;;2.43;;
3971;SDS011;2000;47.572;14.202;2023-07-20T11:21:56;4.47;;;2.80;;
3971;SDS011;2000;47.572;14.202;2023-07-20T11:24:27;4.10;;;3.10;;
3971;SDS011;2000;47.572;14.202;2023-07-20T11:26:54;3.27;;;2.57;;
3971;SDS011;2000;47.572;14.202;2023-07-20T11:29:22;5.90;;;3.00;;
3971;SDS011;2000;47.572;14.202;2023-07-20T11:31:58;3.43;;;2.47;;
3971;SDS011;2000;47.572;14.202;2023-07-20T11:34:26;3.67;;;2.80;;
3971;SDS011;2000;47.572;14.202;2023-07-20T11:36:54;4.73;;;3.13;;
3971;SDS011;2000;47.572;14.202;2023-07-20T11:39:24;4.93;;;3.13;;
3971;SDS011;2000;47.572;14.202;2023-07-20T11:41:53;5.10;;;2.93;;
3971;SDS011;2000;47.572;14.202;2023-07-20T11:44:25;3.80;;;3.10;;
3971;SDS011;2000;47.572;14.202;2023-07-20T11:47:12;5.50;;;3.00;;
3971;SDS011;2000;47.572;14.202;2023-07-20T11:49:40;5.10;;;2.70;;
3971;SDS011;2000;47.572;14.202;2023-07-20T11:52:08;7.60;;;2.63;;
3971;SDS011;2000;47.572;14.202;2023-07-20T11:54:40;2.43;;;2.23;;
3971;SDS011;2000;47.572;14.202;2023-07-20T11:57:16;8.20;;;2.60;;
3971;SDS011;2000;47.572;14.202;2023-07-20T11:59:56;3.07;;;1.90;;
3971;SDS011;2000;47.572;14.202;2023-07-20T12:02:25;6.63;;;2.57;;
3971;SDS011;2000;47.572;14.202;2023-07-20T12:04:54;3.03;;;2.20;;
3971;SDS011;2000;47.572;14.202;2023-07-20T12:07:22;8.70;;;2.70;;
3971;SDS011;2000;47.572;14.202;2023-07-20T12:10:05;2.80;;;2.43;;
3971;SDS011;2000;47.572;14.202;2023-07-20T12:12:34;3.33;;;2.30;;
3971;SDS011;2000;47.572;14.202;2023-07-20T12:15:14;4.40;;;2.80;;
3971;SDS011;2000;47.572;14.202;2023-07-20T12:17:51;2.20;;;1.90;;
3971;SDS011;2000;47.572;14.202;2023-07-20T12:20:26;2.90;;;2.30;;
3971;SDS011;2000;47.572;14.202;2023-07-20T12:22:56;2.80;;;2.57;;
3971;SDS011;2000;47.572;14.202;2023-07-20T12:25:38;3.20;;;2.63;;
3971;SDS011;2000;47.572;14.202;2023-07-20T12:28:52;4.63;;;2.03;;
3971;SDS011;2000;47.572;14.202;2023-07-20T12:31:20;2.67;;;2.20;;
3971;SDS011;2000;47.572;14.202;2023-07-20T12:33:54;3.10;;;2.33;;
3971;SDS011;2000;47.572;14.202;2023-07-20T12:36:24;4.03;;;3.07;;
3971;SDS011;2000;47.572;14.202;2023-07-20T12:38:51;6.47;;;3.30;;
3971;SDS011;2000;47.572;14.202;2023-07-20T12:41:18;3.57;;;2.40;;
3971;SDS011;2000;47.572;14.202;2023-07-20T12:43:46;3.80;;;2.20;;
3971;SDS011;2000;47.572;14.202;2023-07-20T12:46:13;4.13;;;2.50;;
3971;SDS011;2000;47.572;14.202;2023-07-20T12:48:41;5.27;;;2.60;;
3971;SDS011;2000;47.572;14.202;2023-07-20T12:51:12;2.87;;;2.03;;
3971;SDS011;2000;47.572;14.202;2023-07-20T12:53:39;6.27;;;2.37;;
3971;SDS011;2000;47.572;14.202;2023-07-20T12:56:06;3.30;;;2.30;;
3971;SDS011;2000;47.572;14.202;2023-07-20T12:58:36;2.30;;;2.10;;
3971;SDS011;2000;47.572;14.202;2023-07-20T13:01:03;3.27;;;1.83;;
3971;SDS011;2000;47.572;14.202;2023-07-20T13:03:30;2.20;;;1.97;;
3971;SDS011;2000;47.572;14.202;2023-07-20T13:05:59;4.40;;;2.70;;
3971;SDS011;2000;47.572;14.202;2023-07-20T13:08:28;2.40;;;2.20;;
3971;SDS011;2000;47.572;14.202;2023-07-20T13:10:55;4.23;;;1.50;;
3971;SDS011;2000;47.572;14.202;2023-07-20T13:13:22;3.13;;;1.70;;
3971;SDS011;2000;47.572;14.202;2023-07-20T13:15:49;3.73;;;1.83;;
3971;SDS011;2000;47.572;14.202;2023-07-20T13:18:16;3.07;;;2.33;;
3971;SDS011;2000;47.572;14.202;2023-07-20T13:20:45;10.47;;;2.60;;
3971;SDS011;2000;47.572;14.202;2023-07-20T13:23:12;1.83;;;1.70;;
3971;SDS011;2000;47.572;14.202;2023-07-20T13:25:39;5.20;;;2.17;;
3971;SDS011;2000;47.572;14.202;2023-07-20T13:28:05;3.73;;;2.47;;
3971;SDS011;2000;47.572;14.202;2023-07-20T13:30:32;1.90;;;1.80;;
3971;SDS011;2000;47.572;14.202;2023-07-20T13:32:59;3.73;;;2.07;;
3971;SDS011;2000;47.572;14.202;2023-07-20T13:35:32;2.13;;;1.90;;
3971;SDS011;2000;47.572;14.202;2023-07-20T13:38:01;3.53;;;2.40;;
3971;SDS011;2000;47.572;14.202;2023-07-20T13:40:28;1.53;;;1.43;;
3971;SDS011;2000;47.572;14.202;2023-07-20T13:42:55;4.57;;;2.20;;
3971;SDS011;2000;47.572;14.202;2023-07-20T13:45:22;11.83;;;1.97;;
3971;SDS011;2000;47.572;14.202;2023-07-20T13:47:49;2.83;;;2.20;;
3971;SDS011;2000;47.572;14.202;2023-07-20T13:50:16;2.20;;;1.80;;
3971;SDS011;2000;47.572;14.202;2023-07-20T13:52:46;2.03;;;1.80;;
3971;SDS011;2000;47.572;14.202;2023-07-20T13:55:13;2.10;;;2.00;;
3971;SDS011;2000;47.572;14.202;2023-07-20T13:57:41;4.20;;;1.57;;
3971;SDS011;2000;47.572;14.202;2023-07-20T14:00:09;6.13;;;2.17;;
3971;SDS011;2000;47.572;14.202;2023-07-20T14:02:37;2.40;;;1.70;;
3971;SDS011;2000;47.572;14.202;2023-07-20T14:05:07;2.80;;;1.67;;
3971;SDS011;2000;47.572;14.202;2023-07-20T14:07:38;5.93;;;2.53;;
3971;SDS011;2000;47.572;14.202;2023-07-20T14:10:06;3.00;;;1.83;;
3971;SDS011;2000;47.572;14.202;2023-07-20T14:12:36;3.47;;;1.57;;
3971;SDS011;2000;47.572;14.202;2023-07-20T14:15:03;8.17;;;1.80;;
3971;SDS011;2000;47.572;14.202;2023-07-20T14:17:31;7.20;;;1.57;;
3971;SDS011;2000;47.572;14.202;2023-07-20T14:19:58;2.50;;;1.77;;
3971;SDS011;2000;47.572;14.202;2023-07-20T14:22:25;2.30;;;1.70;;
3971;SDS011;2000;47.572;14.202;2023-07-20T14:24:52;12.53;;;1.57;;
3971;SDS011;2000;47.572;14.202;2023-07-20T14:27:20;3.00;;;1.77;;
3971;SDS011;2000;47.572;14.202;2023-07-20T14:29:47;1.97;;;1.60;;
3971;SDS011;2000;47.572;14.202;2023-07-20T14:32:14;5.90;;;1.90;;
3971;SDS011;2000;47.572;14.202;2023-07-20T14:34:41;2.57;;;1.90;;
3971;SDS011;2000;47.572;14.202;2023-07-20T14:37:08;1.83;;;1.40;;
3971;SDS011;2000;47.572;14.202;2023-07-20T14:39:35;7.90;;;1.83;;
3971;SDS011;2000;47.572;14.202;2023-07-20T14:42:02;5.40;;;2.00;;
3971;SDS011;2000;47.572;14.202;2023-07-20T14:44:33;4.73;;;2.00;;
3971;SDS011;2000;47.572;14.202;2023-07-20T14:47:00;3.57;;;2.10;;
3971;SDS011;2000;47.572;14.202;2023-07-20T14:49:39;4.97;;;1.40;;
3971;SDS011;2000;47.572;14.202;2023-07-20T14:52:06;3.87;;;1.93;;
3971;SDS011;2000;47.572;14.202;2023-07-20T14:54:36;4.40;;;1.83;;
3971;SDS011;2000;47.572;14.202;2023-07-20T14:57:03;4.00;;;1.30;;
3971;SDS011;2000;47.572;14.202;2023-07-20T14:59:31;6.63;;;2.23;;
3971;SDS011;2000;47.572;14.202;2023-07-20T15:01:58;2.17;;;1.97;;
3971;SDS011;2000;47.572;14.202;2023-07-20T15:04:24;6.00;;;2.60;;
3971;SDS011;2000;47.572;14.202;2023-07-20T15:06:53;2.77;;;1.57;;
3971;SDS011;2000;47.572;14.202;2023-07-20T15:09:21;10.43;;;1.87;;
3971;SDS011;2000;47.572;14.202;2023-07-20T15:11:48;2.57;;;2.00;;
3971;SDS011;2000;47.572;14.202;2023-07-20T15:14:14;16.30;;;2.60;;
3971;SDS011;2000;47.572;14.202;2023-07-20T15:16:41;5.27;;;1.90;;
3971;SDS011;2000;47.572;14.202;2023-07-20T15:19:09;2.67;;;2.37;;
3971;SDS011;2000;47.572;14.202;2023-07-20T15:21:37;2.40;;;2.00;;
3971;SDS011;2000;47.572;14.202;2023-07-20T15:24:04;2.10;;;1.67;;
3971;SDS011;2000;47.572;14.202;2023-07-20T15:26:31;9.20;;;1.97;;